Station: Mackay  

  Atmospheric Gas Attenuation - ITU Rec 676-11   ----------------- dB/100km -----------------
Date Time Temp RH % AH g/m3 Dew Point Wind Direction Speed kph Gust kph Barometer mB Rainfall Since 9am 24GHz 47GHz 76GHz 122GHz 134GHz 241GHz
03/09 16:10 23.6 71 15.1 18 9 15 1020.4 0 32.8 33.8 61.2 161.4 171.5 595.1
03/09 16:00 23.6 70 14.89 17.8 9 15 1020.4 0 32.3 33.5 60.2 159.0 168.5 584.7
03/09 15:50 23.5 72 15.23 18.2 9 15 1020.4 0 33.1 34.1 61.8 163.1 173.6 602.3
03/09 15:40 23.7 70 14.97 17.9 11 17 1020.4 0 32.5 33.6 60.5 159.7 169.4 587.9
03/09 15:30 23.3 71 14.84 17.7 13 17 1020.4 0 32.2 33.5 60.3 159.0 168.5 584.5
03/09 15:20 23.4 71 14.93 17.8 11 19 1020.4 0 32.4 33.6 60.6 159.9 169.5 588.2
03/09 15:10 23.5 70 14.8 17.7 11 17 1020.3 0 32.1 33.3 59.9 158.1 167.5 580.9
03/09 15:00 23.6 70 14.89 17.8 13 15 1020.3 0 32.3 33.5 60.2 159.0 168.5 584.6
03/09 14:50 24.3 70 15.49 18.5 9 15 1020.3 0 33.5 34.2 62.3 164.5 175.5 609.0
03/09 14:40 23.4 71 14.93 17.8 11 17 1020.4 0 32.4 33.6 60.6 159.9 169.5 588.2
03/09 14:30 23.9 72 15.58 18.5 13 17 1020.6 0 33.8 34.6 63.0 166.4 177.7 616.8
03/09 14:20 24 67 14.58 17.5 11 20 1020.8 0 31.6 32.8 58.6 154.7 163.4 566.7
03/09 14:10 24.3 68 15.05 18 9 19 1020.9 0 32.6 33.5 60.4 159.5 169.3 587.5
03/09 14:00 23.7 69 14.76 17.7 13 17 1021.1 0 32.0 33.2 59.6 157.4 166.6 577.8
03/09 13:50 24.3 67 14.83 17.8 11 19 1021.2 0 32.1 33.1 59.5 157.0 166.3 576.8
03/09 13:40 23.6 72 15.31 18.3 13 19 1021.4 0 33.2 34.2 62.1 164.0 174.6 606.0
03/09 13:30 24 67 14.58 17.5 13 20 1021.5 0 31.6 32.8 58.7 154.8 163.4 567.0
03/09 13:20 23.7 71 15.19 18.1 15 20 1021.7 0 33.0 34.0 61.5 162.4 172.7 599.3
03/09 13:10 23.8 69 14.84 17.8 13 19 1021.8 0 32.2 33.4 59.9 158.2 167.6 581.3
03/09 13:00 22.9 71 14.51 17.4 15 19 1021.8 0 31.6 33.1 59.2 156.2 164.8 571.7
03/09 12:50 23 71 14.59 17.5 15 20 1021.9 0 31.7 33.2 59.5 157.0 165.8 575.0
03/09 12:40 23 70 14.39 17.2 15 20 1022 0 31.3 32.9 58.6 154.7 163.0 565.2
03/09 12:30 23 71 14.59 17.5 15 19 1022 0 31.7 33.2 59.5 157.0 165.8 575.0
03/09 12:20 23.9 67 14.49 17.4 13 19 1022.2 0 31.5 32.7 58.4 154.0 162.5 563.6
03/09 12:10 23.6 68 14.46 17.3 13 20 1022.4 0 31.4 32.8 58.5 154.3 162.7 564.4
03/09 12:00 24.4 63 14.02 16.9 9 17 1022.6 0 30.4 31.8 56.1 147.9 155.0 537.6
03/09 11:50 24.3 65 14.38 17.3 11 19 1022.7 0 31.2 32.4 57.7 152.1 160.2 555.6
03/09 11:40 24.7 68 15.39 18.4 11 19 1022.8 0 33.3 34.0 61.7 162.8 173.4 602.0
03/09 11:30 24.2 67 14.74 17.7 13 17 1023 0 32.0 33.1 59.3 156.4 165.4 573.9
03/09 11:20 22.8 69 14.02 16.8 13 17 1023.1 0 30.5 32.4 57.2 151.0 158.3 548.9
03/09 11:10 23 70 14.39 17.2 11 19 1023.3 0 31.3 32.9 58.7 154.8 163.1 565.7
03/09 11:00 23.2 70 14.55 17.4 11 15 1023.4 0 31.6 33.1 59.2 156.3 165.0 572.2
03/09 10:50 23.2 70 14.55 17.4 11 15 1023.6 0 31.6 33.2 59.3 156.3 165.0 572.2
03/09 10:40 22.8 69 14.02 16.8 11 15 1023.7 0 30.5 32.4 57.3 151.1 158.4 549.2
03/09 10:30 23.1 67 13.85 16.6 9 15 1023.7 0 30.2 32.0 56.3 148.6 155.4 538.8
03/09 10:20 23.1 69 14.26 17.1 7 15 1023.9 0 31.0 32.7 58.1 153.2 161.2 558.9
03/09 10:10 22.8 70 14.22 17 9 15 1023.8 0 31.0 32.7 58.1 153.4 161.2 559.0
03/09 10:00 23.3 67 14.01 16.8 6 11 1023.8 0 30.5 32.2 56.9 150.0 157.2 545.2
03/09 09:50 23.5 66 13.96 16.8 2 7 1023.8 0 30.4 32.0 56.5 149.0 156.1 541.4
03/09 09:40 23 67 13.77 16.5 6 9 1023.9 0 30.0 31.9 56.1 147.9 154.5 535.7
03/09 09:30 22.3 71 14.02 16.8 6 11 1023.9 0 30.6 32.6 57.7 152.1 159.5 552.8
03/09 09:20 22.3 74 14.61 17.4 7 11 1024 0 31.8 33.6 60.2 158.9 167.9 582.1
03/09 09:10 21.5 73 13.76 16.5 9 13 1024 0 30.1 32.4 57.1 150.6 157.4 545.7
03/09 09:00 21.1 74 13.63 16.3 9 13 1024 0 29.8 32.4 56.9 149.9 156.4 542.1
03/09 08:50 20.3 74 13.01 15.5 11 15 1023.9 0 28.6 31.6 54.8 144.3 149.3 517.0
03/09 08:40 19.7 77 13.07 15.6 11 15 1023.8 0 28.8 31.9 55.4 146.1 151.3 524.0
03/09 08:30 19.3 80 13.27 15.8 9 15 1023.7 0 29.2 32.4 56.6 149.2 154.9 536.7
03/09 08:20 18.5 82 12.97 15.4 11 15 1023.7 0 28.6 32.2 55.9 147.2 152.2 527.1
03/09 08:10 17.8 83 12.6 14.9 11 17 1023.6 0 27.9 31.8 54.7 144.2 148.3 513.2
03/09 08:00 17.2 86 12.59 14.8 11 17 1023.5 0 27.9 32.0 55.1 145.2 149.3 516.7
03/09 07:50 16.7 87 12.36 14.5 11 17 1023.3 0 27.4 31.7 54.4 143.4 146.9 508.3
03/09 07:40 16.3 88 12.21 14.3 11 17 1023 0 27.2 31.6 54.0 142.3 145.5 503.2
03/09 07:30 15.7 89 11.91 13.9 13 19 1022.8 0 26.6 31.3 53.1 139.8 142.2 491.8
03/09 07:20 15.3 90 11.75 13.7 13 20 1022.9 0 26.2 31.1 52.7 138.7 140.7 486.3
03/09 07:10 15.1 91 11.74 13.6 13 17 1022.8 0 26.2 31.2 52.8 138.9 140.9 487.0
03/09 07:00 14.9 92 11.73 13.6 13 17 1022.6 0 26.2 31.2 52.8 139.1 141.1 487.7
03/09 06:50 14.7 93 11.71 13.6 13 17 1022.5 0 26.2 31.3 52.9 139.2 141.2 487.9
03/09 06:40 14.5 94 11.69 13.5 11 15 1022.5 0 26.2 31.3 52.9 139.4 141.2 488.2
03/09 06:30 14.3 95 11.67 13.5 11 13 1022.4 0 26.1 31.3 53.0 139.5 141.3 488.4
03/09 06:20 14.3 95 11.67 13.5 11 15 1022.3 0 26.1 31.3 53.0 139.5 141.3 488.4
03/09 06:10 14.3 94 11.55 13.3 11 15 1022.2 0 25.9 31.1 52.4 138.0 139.5 482.2
03/09 06:00 14.5 94 11.69 13.5 9 13 1022.1 0 26.2 31.3 52.9 139.3 141.2 488.0
03/09 05:50 14.7 93 11.71 13.6 11 15 1022 0 26.2 31.2 52.9 139.2 141.1 487.8
03/09 05:40 14.6 94 11.76 13.6 11 13 1021.8 0 26.3 31.4 53.1 139.9 142.0 490.9
03/09 05:30 14.7 93 11.71 13.6 11 13 1021.6 0 26.2 31.2 52.8 139.1 141.1 487.6
03/09 05:20 14.6 93 11.64 13.5 11 15 1021.5 0 26.0 31.1 52.6 138.5 140.2 484.6
03/09 05:10 14.6 93 11.64 13.5 11 15 1021.5 0 26.0 31.1 52.6 138.5 140.2 484.6
03/09 05:00 14.7 93 11.71 13.6 13 17 1021.3 0 26.2 31.2 52.8 139.1 141.0 487.5
03/09 04:50 14.8 93 11.78 13.7 13 17 1021.2 0 26.3 31.3 53.1 139.7 141.8 490.4
03/09 04:40 14.7 93 11.71 13.6 13 17 1021.1 0 26.2 31.2 52.8 139.1 141.0 487.4
03/09 04:30 14.7 92 11.58 13.4 13 17 1021 0 25.9 31.0 52.2 137.5 139.1 480.8
03/09 04:20 14.8 92 11.65 13.5 13 17 1020.9 0 26.1 31.1 52.5 138.2 139.9 483.7
03/09 04:10 14.8 92 11.65 13.5 13 17 1020.9 0 26.1 31.1 52.5 138.2 139.9 483.7
03/09 04:00 14.9 93 11.85 13.8 13 20 1020.9 0 26.5 31.4 53.3 140.3 142.7 493.2
03/09 03:50 15 93 11.93 13.9 11 19 1020.9 0 26.6 31.5 53.6 141.1 143.6 496.7
03/09 03:40 15.1 93 12 14 13 17 1020.9 0 26.8 31.6 53.8 141.8 144.5 499.6
03/09 03:30 15.1 93 12 14 13 17 1021 0 26.8 31.6 53.8 141.8 144.5 499.6
03/09 03:20 15 93 11.93 13.9 13 17 1021 0 26.6 31.5 53.6 141.1 143.6 496.7
03/09 03:10 15.1 94 12.13 14.1 11 17 1021.1 0 27.1 31.8 54.4 143.3 146.4 506.3
03/09 03:00 15.3 93 12.14 14.2 11 15 1021 0 27.1 31.8 54.3 143.1 146.1 505.5
03/09 02:50 15.3 94 12.28 14.3 11 15 1021.1 0 27.4 32.0 54.9 144.8 148.2 512.7
03/09 02:40 15.3 93 12.14 14.2 11 15 1021.1 0 27.1 31.8 54.3 143.1 146.2 505.5
03/09 02:30 15.5 94 12.43 14.5 11 15 1021.2 0 27.7 32.2 55.5 146.2 150.0 519.1
03/09 02:20 15.5 94 12.43 14.5 11 15 1021.2 0 27.7 32.2 55.5 146.2 150.0 519.1
03/09 02:10 15.7 95 12.71 14.9 11 17 1021.3 0 28.3 32.7 56.6 149.2 153.8 532.2
03/09 02:00 15.7 95 12.71 14.9 13 15 1021.3 0 28.3 32.7 56.6 149.2 153.8 532.2
03/09 01:50 15.8 95 12.79 15 11 15 1021.4 0 28.4 32.8 56.9 150.0 154.8 535.7
03/09 01:40 15.8 96 12.92 15.2 11 15 1021.6 0 28.7 33.0 57.5 151.6 156.8 542.6
03/09 01:30 15.9 96 13 15.3 11 13 1021.7 0 28.9 33.1 57.8 152.4 157.8 546.1
03/09 01:20 16 96 13.08 15.4 11 15 1021.8 0 29.0 33.2 58.1 153.2 158.8 549.6
03/09 01:10 16 96 13.08 15.4 11 13 1021.9 0 29.0 33.2 58.1 153.2 158.8 549.6
03/09 01:00 16.1 95 13.02 15.3 11 13 1021.9 0 28.9 33.1 57.8 152.2 157.7 545.8
03/09 00:50 16.2 95 13.1 15.4 9 13 1022 0 29.1 33.2 58.1 153.0 158.7 549.2
03/09 00:40 16.3 95 13.18 15.5 9 15 1022.1 0 29.2 33.3 58.3 153.8 159.7 552.7
03/09 00:30 16.3 95 13.18 15.5 9 13 1022.1 0 29.2 33.3 58.3 153.8 159.7 552.7
03/09 00:20 16.3 95 13.18 15.5 9 11 1022.2 0 29.2 33.3 58.4 153.8 159.7 552.8
03/09 00:10 16.4 95 13.26 15.6 9 13 1022.2 0 29.4 33.4 58.6 154.6 160.7 556.2
03/09 00:00 16.4 95 13.26 15.6 9 13 1022.2 0 29.4 33.4 58.6 154.6 160.7 556.2
02/09 23:50 16.4 95 13.26 15.6 9 13 1022.2 0 29.4 33.4 58.6 154.6 160.7 556.2
02/09 23:40 16.5 95 13.34 15.7 11 13 1022.2 0 29.6 33.5 58.9 155.4 161.6 559.7

Last Refresh: 03-Sep-2026 15:50:50

Bureau of Meteorology